»·PEaware :: N19FP KCMA-KRAL

N19FP :: KCMA-KRAL

FLIGHT INFORMATION

Flight Status: Arrived
Operator: Privately registered:
United States
More flights under this callsign
Pilot: Bradley F. (35082)
Aircraft: CESSNA 172 SKYHAWK
(C172)
More flights by this aircraft type
Origin: KCMA Camarillo
United States
Destination: KRAL Riverside Mun
United States
More flights between these airports :: More routes between these airports
Route:
File this flight plan on PilotEdge
Remarks:
Altitude:
(Current/Filed)
5,500ft
Speed:
(Current/Filed)
0kts
Departed: 17-Oct-21 06:33 PM
Arrived: 17-Oct-21 07:22 PM
Distance/Time
Traveled:
83nm/0:49
Distance/Time
To Go:
Arrived

Flight Plot

Page will automatically refresh every two minutes.

Flight plan parsing failed; only flown route is shown


Map Options




Map Legend


Flown Route
Filed Route
Departure Airport
Arrival Airport
Navaid (VOR, NDB)
Fix

Horizontal Profiles

Position Reports

Time Latitude Longitude Heading Altitude Ground
Speed
17-Oct-21 18:28 34.212202 -119.084215 353 79ft 0kts
17-Oct-21 18:29 34.212202 -119.084215 353 79ft 0kts
17-Oct-21 18:30 34.212423 -119.084410 317 79ft 6kts
17-Oct-21 18:31 34.213659 -119.085052 269 78ft 17kts
17-Oct-21 18:32 34.213613 -119.109760 275 551ft 88kts
17-Oct-21 18:33 34.231590 -119.097551 63 1269ft 101kts
17-Oct-21 18:34 34.242789 -119.066791 73 2018ft 101kts
17-Oct-21 18:35 34.248506 -119.033966 86 2809ft 99kts
17-Oct-21 18:36 34.253821 -119.000760 79 3560ft 102kts
17-Oct-21 18:37 34.256806 -118.966361 98 4147ft 100kts
17-Oct-21 18:38 34.255663 -118.931994 97 4686ft 104kts
17-Oct-21 18:39 34.251140 -118.898005 111 5264ft 101kts
17-Oct-21 18:40 34.245191 -118.861529 106 5530ft 119kts
17-Oct-21 18:41 34.241507 -118.821804 101 5489ft 119kts
17-Oct-21 18:42 34.239022 -118.781489 100 5514ft 119kts
17-Oct-21 18:43 34.237170 -118.741470 95 5430ft 120kts
17-Oct-21 18:44 34.235420 -118.702203 103 5526ft 118kts
17-Oct-21 18:45 34.232338 -118.662024 103 5547ft 119kts
17-Oct-21 18:46 34.228455 -118.622153 106 5554ft 119kts
17-Oct-21 18:47 34.223878 -118.581989 104 5585ft 119kts
17-Oct-21 18:48 34.220072 -118.541959 105 5598ft 119kts
17-Oct-21 18:49 34.214480 -118.502372 106 5568ft 119kts
17-Oct-21 18:50 34.209631 -118.462499 106 5568ft 119kts
17-Oct-21 18:51 34.204646 -118.422782 108 5564ft 119kts
17-Oct-21 18:52 34.197285 -118.383977 113 5584ft 118kts
17-Oct-21 18:53 34.187619 -118.346484 113 5583ft 117kts
17-Oct-21 18:54 34.176732 -118.309946 118 5534ft 115kts
17-Oct-21 18:55 34.169080 -118.271992 104 5552ft 119kts
17-Oct-21 18:56 34.162633 -118.233144 110 5612ft 118kts
17-Oct-21 18:57 34.154503 -118.194678 113 5624ft 115kts
17-Oct-21 18:58 34.141305 -118.159526 125 5562ft 113kts
17-Oct-21 18:59 34.127606 -118.125538 123 5540ft 113kts
17-Oct-21 19:00 34.115703 -118.090306 118 5576ft 113kts
17-Oct-21 19:01 34.104518 -118.054473 118 5587ft 116kts
17-Oct-21 19:02 34.092207 -118.018810 117 5570ft 115kts
17-Oct-21 19:03 34.080588 -117.982992 115 5602ft 112kts
17-Oct-21 19:04 34.069193 -117.947081 115 5609ft 116kts
17-Oct-21 19:05 34.057794 -117.910802 119 5636ft 114kts
17-Oct-21 19:06 34.046144 -117.874639 112 5569ft 117kts
17-Oct-21 19:07 34.039155 -117.835875 109 5529ft 117kts
17-Oct-21 19:08 34.029740 -117.797982 115 5548ft 115kts
17-Oct-21 19:09 34.018985 -117.760653 117 4907ft 113kts
17-Oct-21 19:10 34.009080 -117.724184 110 3876ft 111kts
17-Oct-21 19:11 34.001887 -117.690132 108 3200ft 101kts
17-Oct-21 19:12 33.994321 -117.657400 105 2794ft 98kts
17-Oct-21 19:13 33.991594 -117.624481 96 2858ft 104kts
17-Oct-21 19:14 33.987135 -117.589100 100 3042ft 111kts
17-Oct-21 19:15 33.981912 -117.552974 100 2897ft 110kts
17-Oct-21 19:16 33.975912 -117.517549 108 2190ft 101kts
17-Oct-21 19:17 33.969650 -117.486538 107 1718ft 87kts
17-Oct-21 19:18 33.964367 -117.456440 100 1696ft 99kts
17-Oct-21 19:19 33.961546 -117.427191 94 1557ft 84kts
17-Oct-21 19:20 33.949801 -117.430645 281 956ft 78kts
17-Oct-21 19:21 33.950961 -117.440009 203 801ft 0kts
17-Oct-21 19:22 33.951025 -117.441133 282 797ft 17kts
17-Oct-21 19:23 33.950973 -117.445475 281 777ft 7kts

Navigation Log

Ident Type
Flight plan parsing failed, navigation log unavailable